Hubert, North Carolina
Current Conditions -  °F | °C
As of 1:56 AM on Wednesday 26 Nov 2014 (Local Time) from KNCA Reporting Station
Overcast Overcast  
Wind Chill: 63°   Ceiling: 500
Heat Index: 63°   Visibility: 10mi
Dew Point: 61°   Wind: 7mph
Humidity: 93%   Direction: 60°ENE
Pressure: 29.89"   Gusts: NA
Location:  34.71°N, 77.25°W
Report Text: KNCA 260656Z AUTO 06006KT 10SM OVC005 17/16 A2989 RMK AO2 RAB25E35 SLP123 P0000 T01720161
Loading
Personal Weather Stations






























Interactive Weather Map New forecast layout! Learn more

10-Day Weather Forecast

Advertisements
Track Severe Weather on mobile